createdAt,value
2023-10-12T00:00:37.487Z,0.40
2023-10-12T00:03:06.994Z,0.47
2023-10-12T00:05:35.806Z,0.50
2023-10-12T00:08:11.303Z,0.40
2023-10-12T00:10:45.510Z,0.50
2023-10-12T00:13:13.899Z,0.52
2023-10-12T00:15:47.563Z,0.50
2023-10-12T00:18:18.335Z,0.60
2023-10-12T00:20:51.755Z,0.30
2023-10-12T00:23:20.293Z,0.40
2023-10-12T00:25:55.820Z,0.40
2023-10-12T00:28:30.563Z,0.52
2023-10-12T00:30:59.458Z,0.60
2023-10-12T00:33:27.624Z,0.60
2023-10-12T00:36:01.893Z,0.50
2023-10-12T00:41:05.171Z,0.50
2023-10-12T00:43:38.482Z,0.30
2023-10-12T00:46:22.088Z,0.52
2023-10-12T00:48:51.783Z,0.50
2023-10-12T00:51:20.120Z,0.45
2023-10-12T00:53:57.255Z,0.35
2023-10-12T00:56:27.312Z,0.50
2023-10-12T00:58:56.850Z,0.50
2023-10-12T01:01:25.270Z,0.30
2023-10-12T01:03:54.054Z,0.40
2023-10-12T01:06:30.585Z,0.50
2023-10-12T01:09:01.507Z,0.40
2023-10-12T01:11:35.678Z,0.40
2023-10-12T01:14:16.544Z,0.65
2023-10-12T01:16:47.204Z,0.40
2023-10-12T01:19:22.747Z,0.55
2023-10-12T01:21:53.340Z,0.40
2023-10-12T01:24:25.782Z,0.50
2023-10-12T01:26:54.679Z,0.40
2023-10-12T01:29:22.936Z,0.50
2023-10-12T01:31:55.090Z,0.40
2023-10-12T01:34:26.251Z,0.55
2023-10-12T01:36:59.524Z,0.40
2023-10-12T01:39:30.216Z,0.40
2023-10-12T01:41:58.460Z,0.30
2023-10-12T01:44:26.730Z,0.40
2023-10-12T01:46:54.840Z,0.50
2023-10-12T01:49:22.990Z,0.40
2023-10-12T01:51:51.068Z,0.50
2023-10-12T01:54:25.868Z,0.45
2023-10-12T01:56:54.535Z,0.50
2023-10-12T01:59:22.782Z,0.43
2023-10-12T02:02:11.222Z,0.40
2023-10-12T02:04:41.677Z,0.50
2023-10-12T02:07:11.941Z,0.40
2023-10-12T02:09:43.287Z,0.40
2023-10-12T02:12:14.645Z,0.40
2023-10-12T02:14:42.822Z,0.40
2023-10-12T02:17:10.942Z,0.40
2023-10-12T02:19:43.614Z,0.30
2023-10-12T02:22:20.981Z,0.40
2023-10-12T02:25:00.532Z,0.30
2023-10-12T02:27:28.728Z,0.40
2023-10-12T02:29:57.942Z,0.40
2023-10-12T02:32:26.836Z,0.40
2023-10-12T02:34:58.654Z,0.40
2023-10-12T02:37:29.111Z,0.50
2023-10-12T02:39:58.724Z,0.40
2023-10-12T02:42:41.755Z,0.50
2023-10-12T02:45:19.056Z,0.35
2023-10-12T02:47:50.167Z,0.30
2023-10-12T02:50:28.495Z,0.30
2023-10-12T02:52:56.770Z,0.40
2023-10-12T02:55:41.430Z,0.50
2023-10-12T02:58:20.776Z,0.35
2023-10-12T03:00:56.739Z,0.47
2023-10-12T03:03:27.762Z,0.50
2023-10-12T03:05:59.990Z,0.50
2023-10-12T03:08:32.768Z,0.43
2023-10-12T03:11:14.024Z,0.40
2023-10-12T03:13:44.124Z,0.43
2023-10-12T03:16:22.163Z,0.40
2023-10-12T03:18:58.859Z,0.40
2023-10-12T03:21:29.097Z,0.40
2023-10-12T03:23:59.070Z,0.40
2023-10-12T03:26:28.643Z,0.40
2023-10-12T03:29:03.907Z,0.30
2023-10-12T03:31:37.589Z,0.30
2023-10-12T03:34:18.180Z,0.40
2023-10-12T03:36:49.599Z,0.30
2023-10-12T03:39:29.135Z,0.43
2023-10-12T03:42:11.299Z,0.45
2023-10-12T03:44:50.175Z,0.38
2023-10-12T03:47:25.470Z,0.40
2023-10-12T03:50:01.532Z,0.50
2023-10-12T03:52:35.703Z,0.30
2023-10-12T03:55:25.350Z,0.40
2023-10-12T03:58:07.507Z,0.30
2023-10-12T04:00:42.755Z,0.30
2023-10-12T04:03:19.984Z,0.40
2023-10-12T04:05:52.771Z,0.47
2023-10-12T04:08:40.747Z,0.40
2023-10-12T04:11:41.326Z,0.40
2023-10-12T04:14:45.210Z,0.30
2023-10-12T04:17:23.249Z,0.40
2023-10-12T04:20:05.285Z,0.40
2023-10-12T04:22:42.803Z,0.40
2023-10-12T04:25:14.739Z,0.50
2023-10-12T04:27:51.749Z,0.30
2023-10-12T04:30:22.034Z,0.30
2023-10-12T04:33:13.169Z,0.50
2023-10-12T04:36:02.971Z,0.30
2023-10-12T04:38:46.654Z,0.40
2023-10-12T04:41:26.614Z,0.32
2023-10-12T04:43:55.173Z,0.50
2023-10-12T04:46:40.982Z,0.30
2023-10-12T04:49:23.407Z,0.60
2023-10-12T04:52:09.984Z,0.43
2023-10-12T04:54:50.811Z,0.45
2023-10-12T04:57:19.073Z,0.28
2023-10-12T04:59:52.305Z,0.50
2023-10-12T05:02:31.999Z,0.50
2023-10-12T05:05:37.130Z,0.43
2023-10-12T05:08:06.430Z,0.40
2023-10-12T05:10:47.631Z,0.30
2023-10-12T05:13:23.168Z,0.65
2023-10-12T05:16:03.958Z,0.40
2023-10-12T05:18:34.063Z,0.40
2023-10-12T05:21:02.358Z,0.40
2023-10-12T05:23:31.174Z,0.47
2023-10-12T05:26:11.452Z,0.50
2023-10-12T05:28:49.162Z,0.40
2023-10-12T05:31:21.979Z,0.45
2023-10-12T05:34:18.255Z,0.40
2023-10-12T05:36:46.965Z,0.40
2023-10-12T05:39:15.172Z,0.40
2023-10-12T05:41:43.260Z,0.40
2023-10-12T05:44:14.976Z,0.40
2023-10-12T05:46:46.498Z,0.60
2023-10-12T05:49:16.181Z,0.40
2023-10-12T05:51:45.882Z,0.73
2023-10-12T05:54:16.583Z,0.60
2023-10-12T05:56:45.707Z,0.40
2023-10-12T05:59:15.291Z,0.40
2023-10-12T06:01:47.549Z,0.40
2023-10-12T06:04:17.487Z,0.60
2023-10-12T06:06:45.733Z,0.40
2023-10-12T06:09:14.944Z,0.50
2023-10-12T06:11:43.692Z,0.40
2023-10-12T06:14:11.940Z,0.50
2023-10-12T06:16:41.951Z,0.50
2023-10-12T06:19:19.708Z,0.47
2023-10-12T06:21:52.406Z,0.50
2023-10-12T06:24:32.492Z,0.50
2023-10-12T06:27:03.407Z,0.50
2023-10-12T06:29:33.892Z,0.70
2023-10-12T06:32:03.397Z,0.70
2023-10-12T06:34:31.572Z,0.60
2023-10-12T06:37:12.675Z,0.47
2023-10-12T06:39:58.102Z,0.50
2023-10-12T06:42:28.750Z,0.70
2023-10-12T06:44:55.891Z,0.80
2023-10-12T06:47:30.117Z,0.60
2023-10-12T06:50:01.591Z,0.80
2023-10-12T06:52:31.365Z,0.50
2023-10-12T06:55:01.184Z,0.50
2023-10-12T06:57:37.074Z,0.70
2023-10-12T07:00:34.882Z,0.50
2023-10-12T07:03:02.289Z,0.50
2023-10-12T07:05:34.791Z,0.55
2023-10-12T07:08:08.779Z,0.65
2023-10-12T07:10:36.866Z,0.55
2023-10-12T07:13:05.896Z,0.60
2023-10-12T07:15:41.799Z,0.60
2023-10-12T07:18:16.205Z,0.57
2023-10-12T07:20:47.684Z,0.60
2023-10-12T07:23:17.209Z,0.43
2023-10-12T07:25:46.829Z,0.32
2023-10-12T07:28:19.899Z,0.60
2023-10-12T07:31:02.235Z,0.68
2023-10-12T07:33:32.378Z,0.63
2023-10-12T07:36:11.162Z,0.60
2023-10-12T07:38:41.714Z,0.50
2023-10-12T07:41:10.932Z,0.50
2023-10-12T07:43:39.611Z,0.65
2023-10-12T07:46:14.633Z,0.60
2023-10-12T07:48:43.913Z,0.60
2023-10-12T07:51:17.175Z,0.68
2023-10-12T07:53:46.754Z,0.60
2023-10-12T07:56:18.189Z,0.50
2023-10-12T07:58:49.045Z,0.60
2023-10-12T08:01:40.311Z,0.75
2023-10-12T08:04:20.929Z,0.80
2023-10-12T08:06:50.131Z,0.75
2023-10-12T08:09:43.482Z,0.80
2023-10-12T08:15:12.200Z,0.60
2023-10-12T08:17:47.187Z,0.70
2023-10-12T08:20:29.304Z,0.70
2023-10-12T08:23:03.387Z,0.82
2023-10-12T08:25:39.446Z,0.70
2023-10-12T08:28:21.105Z,0.73
2023-10-12T08:30:50.016Z,0.90
2023-10-12T08:33:38.582Z,0.88
2023-10-12T08:36:24.557Z,0.85
2023-10-12T08:38:55.638Z,0.98
2023-10-12T08:41:25.782Z,1.08
2023-10-12T08:43:57.602Z,0.93
2023-10-12T08:46:44.830Z,1.05
2023-10-12T08:49:26.736Z,0.90
2023-10-12T08:52:09.094Z,0.88
2023-10-12T08:54:38.575Z,0.95
2023-10-12T08:57:13.914Z,0.90
2023-10-12T08:59:43.742Z,1.10
2023-10-12T09:02:21.039Z,0.77
2023-10-12T09:04:51.294Z,1.00
2023-10-12T09:07:22.505Z,0.70
2023-10-12T09:09:56.902Z,0.80
2023-10-12T09:14:56.291Z,0.80
2023-10-12T09:17:34.061Z,0.82
2023-10-12T09:20:19.983Z,1.00
2023-10-12T09:22:57.863Z,0.73
2023-10-12T09:25:52.638Z,1.13
2023-10-12T09:28:27.325Z,0.70
2023-10-12T09:31:01.634Z,0.75
2023-10-12T09:33:55.385Z,1.02
2023-10-12T09:36:23.778Z,0.93
2023-10-12T09:38:57.021Z,0.80
2023-10-12T09:41:27.814Z,0.60
2023-10-12T09:43:55.898Z,0.85
2023-10-12T09:46:27.267Z,0.80
2023-10-12T09:48:59.875Z,0.73
2023-10-12T09:51:29.982Z,0.70
2023-10-12T09:54:00.517Z,0.70
2023-10-12T09:56:34.948Z,0.75
2023-10-12T09:59:09.303Z,0.57
2023-10-12T10:01:50.856Z,0.50
2023-10-12T10:04:36.210Z,0.63
2023-10-12T10:07:19.990Z,0.60
2023-10-12T10:09:49.610Z,0.68
2023-10-12T10:12:19.473Z,0.43
2023-10-12T10:14:52.988Z,0.68
2023-10-12T10:17:25.378Z,0.80
2023-10-12T10:20:28.323Z,0.73
2023-10-12T10:22:58.725Z,0.70
2023-10-12T10:25:28.784Z,0.70
2023-10-12T10:27:58.225Z,0.50
2023-10-12T10:30:29.696Z,0.60
2023-10-12T10:33:08.722Z,0.73
2023-10-12T10:36:13.708Z,0.47
2023-10-12T10:38:54.883Z,0.70
2023-10-12T10:41:38.640Z,0.90
2023-10-12T10:44:10.113Z,0.60
2023-10-12T10:46:41.601Z,0.50
2023-10-12T10:49:32.029Z,0.70
2023-10-12T10:52:15.073Z,0.52
2023-10-12T10:54:57.822Z,0.50
2023-10-12T10:57:33.439Z,0.70
2023-10-12T11:00:01.849Z,0.68
2023-10-12T11:02:29.860Z,0.60
2023-10-12T11:05:01.340Z,0.50
2023-10-12T11:07:30.840Z,0.80
2023-10-12T11:10:20.726Z,0.50
2023-10-12T11:12:49.597Z,0.60
2023-10-12T11:15:22.805Z,0.80
2023-10-12T11:17:58.608Z,0.52
2023-10-12T11:20:51.922Z,0.50
2023-10-12T11:23:21.498Z,0.50
2023-10-12T11:25:49.553Z,0.50
2023-10-12T11:28:22.073Z,0.60
2023-10-12T11:30:53.497Z,0.52
2023-10-12T11:33:29.675Z,0.60
2023-10-12T11:36:02.176Z,0.60
2023-10-12T11:38:32.356Z,0.57
2023-10-12T11:41:13.193Z,0.60
2023-10-12T11:43:51.102Z,0.70
2023-10-12T11:46:19.268Z,0.68
2023-10-12T11:48:47.762Z,0.60
2023-10-12T11:51:16.219Z,0.63
2023-10-12T11:53:45.725Z,0.50
2023-10-12T11:56:15.037Z,0.50
2023-10-12T11:58:48.969Z,0.70
2023-10-12T12:01:17.091Z,0.45
2023-10-12T12:03:46.845Z,0.60
2023-10-12T12:06:20.235Z,0.50
2023-10-12T12:08:50.164Z,0.50
2023-10-12T12:11:20.712Z,0.60
2023-10-12T12:13:54.056Z,0.47
2023-10-12T12:16:24.988Z,0.50
2023-10-12T12:18:54.510Z,0.63
2023-10-12T12:21:32.574Z,0.50
2023-10-12T12:24:16.376Z,0.50
2023-10-12T12:26:47.881Z,0.55
2023-10-12T12:29:23.126Z,0.50
2023-10-12T12:31:51.310Z,0.60
2023-10-12T12:34:39.373Z,0.65
2023-10-12T12:37:09.011Z,0.70
2023-10-12T12:39:38.466Z,0.40
2023-10-12T12:42:10.495Z,0.60
2023-10-12T12:44:38.677Z,0.55
2023-10-12T12:47:08.369Z,0.50
2023-10-12T12:49:36.688Z,0.50
2023-10-12T12:52:05.260Z,0.40
2023-10-12T12:54:36.634Z,0.68
2023-10-12T12:57:06.385Z,0.45
2023-10-12T12:59:34.459Z,0.60
2023-10-12T13:02:04.486Z,0.40
2023-10-12T13:04:35.694Z,0.40
2023-10-12T13:07:10.183Z,0.40
2023-10-12T13:09:38.472Z,0.50
2023-10-12T13:12:08.240Z,0.60
2023-10-12T13:14:36.384Z,0.52
2023-10-12T13:17:04.619Z,0.60
2023-10-12T13:19:45.894Z,0.50
2023-10-12T13:22:14.469Z,0.43
2023-10-12T13:24:44.540Z,0.47
2023-10-12T13:27:21.582Z,0.50
2023-10-12T13:29:50.993Z,0.50
2023-10-12T13:32:19.976Z,0.55
2023-10-12T13:34:48.070Z,0.55
2023-10-12T13:37:16.078Z,0.50
2023-10-12T13:39:44.210Z,0.40
2023-10-12T13:42:13.971Z,0.50
2023-10-12T13:44:43.879Z,0.47
2023-10-12T13:47:14.381Z,0.60
2023-10-12T13:49:42.717Z,0.57
2023-10-12T13:52:11.293Z,0.70
2023-10-12T13:54:50.242Z,0.73
2023-10-12T13:57:19.732Z,0.50
2023-10-12T13:59:49.013Z,0.50
2023-10-12T14:02:17.420Z,0.70
2023-10-12T14:04:45.963Z,0.50
2023-10-12T14:07:14.160Z,0.40
2023-10-12T14:09:42.286Z,0.60
2023-10-12T14:12:11.803Z,0.60
2023-10-12T14:14:41.433Z,0.60
2023-10-12T14:17:09.727Z,0.63
2023-10-12T14:19:38.197Z,0.60
2023-10-12T14:22:09.110Z,0.80
2023-10-12T14:24:37.331Z,0.60
2023-10-12T14:27:07.788Z,0.70
2023-10-12T14:29:37.384Z,0.50
2023-10-12T14:32:09.762Z,0.60
2023-10-12T14:34:39.985Z,0.60
2023-10-12T14:37:14.646Z,0.80
2023-10-12T14:39:42.936Z,0.65
2023-10-12T14:42:11.890Z,0.70
2023-10-12T14:44:40.188Z,0.50
2023-10-12T14:47:09.636Z,0.50
2023-10-12T14:49:38.292Z,0.60
2023-10-12T14:52:09.425Z,0.60
2023-10-12T14:54:37.555Z,0.70
2023-10-12T14:57:05.972Z,0.70
2023-10-12T14:59:34.920Z,0.60
2023-10-12T15:02:11.181Z,0.60
2023-10-12T15:04:43.451Z,0.73
2023-10-12T15:07:13.752Z,0.70
2023-10-12T15:09:49.812Z,0.60
2023-10-12T15:12:18.353Z,0.70
2023-10-12T15:14:48.328Z,0.70
2023-10-12T15:17:20.421Z,0.60
2023-10-12T15:19:49.932Z,0.60
2023-10-12T15:22:19.576Z,0.60
2023-10-12T15:24:47.823Z,0.55
2023-10-12T15:27:17.060Z,0.60
2023-10-12T15:29:46.085Z,0.60
2023-10-12T15:32:14.361Z,0.60
2023-10-12T15:34:43.796Z,0.70
2023-10-12T15:37:14.869Z,0.60
2023-10-12T15:39:45.824Z,0.60
2023-10-12T15:42:14.005Z,0.60
2023-10-12T15:44:42.192Z,0.80
2023-10-12T15:47:10.251Z,0.60
2023-10-12T15:49:38.390Z,0.65
2023-10-12T15:52:06.753Z,0.70
2023-10-12T15:54:36.340Z,0.57
2023-10-12T15:57:05.376Z,0.77
2023-10-12T15:59:34.505Z,0.65
2023-10-12T16:02:03.311Z,0.50
2023-10-12T16:04:32.148Z,0.68
2023-10-12T16:07:06.506Z,0.63
2023-10-12T16:09:36.598Z,0.70
2023-10-12T16:12:04.985Z,0.70
2023-10-12T16:14:33.135Z,0.70
2023-10-12T16:17:02.037Z,0.80
2023-10-12T16:19:30.298Z,0.70
2023-10-12T16:21:58.799Z,0.60
2023-10-12T16:24:27.380Z,0.70
2023-10-12T16:26:56.780Z,0.70
2023-10-12T16:29:27.235Z,0.80
2023-10-12T16:31:55.441Z,0.70
2023-10-12T16:34:23.674Z,0.70
2023-10-12T16:36:51.940Z,0.70
2023-10-12T16:39:21.669Z,0.80
2023-10-12T16:41:50.376Z,0.80
2023-10-12T16:44:19.989Z,0.60
2023-10-12T16:46:48.391Z,0.80
2023-10-12T16:49:17.147Z,0.85
2023-10-12T16:51:46.314Z,0.60
2023-10-12T16:54:14.569Z,0.98
2023-10-12T16:56:44.840Z,1.00
2023-10-12T16:59:13.742Z,0.80
2023-10-12T17:01:43.297Z,0.90
2023-10-12T17:04:17.085Z,0.70
2023-10-12T17:06:45.618Z,0.87
2023-10-12T17:09:14.416Z,0.90
2023-10-12T17:11:42.500Z,0.80
2023-10-12T17:14:10.535Z,0.80
2023-10-12T17:16:39.062Z,0.98
2023-10-12T17:19:08.944Z,0.63
2023-10-12T17:21:36.979Z,0.90
2023-10-12T17:24:06.566Z,0.90
2023-10-12T17:26:35.854Z,1.00
2023-10-12T17:29:04.533Z,1.08
2023-10-12T17:31:32.726Z,0.80
2023-10-12T17:34:01.226Z,1.20
2023-10-12T17:36:31.065Z,0.93
2023-10-12T17:38:59.870Z,1.10
2023-10-12T17:41:27.935Z,0.90
2023-10-12T17:43:56.011Z,0.90
2023-10-12T17:46:25.982Z,0.98
2023-10-12T17:48:56.648Z,1.10
2023-10-12T17:51:25.164Z,0.93
2023-10-12T17:53:54.726Z,0.93
2023-10-12T17:56:22.793Z,1.17
2023-10-12T17:58:50.901Z,1.15
2023-10-12T18:01:19.510Z,1.00
2023-10-12T18:03:49.361Z,1.13
2023-10-12T18:06:17.958Z,0.90
2023-10-12T18:08:46.105Z,1.08
2023-10-12T18:11:15.785Z,1.13
2023-10-12T18:13:44.152Z,1.10
2023-10-12T18:16:13.631Z,1.08
2023-10-12T18:18:41.859Z,0.93
2023-10-12T18:21:10.008Z,1.10
2023-10-12T18:23:40.984Z,1.00
2023-10-12T18:26:09.261Z,1.00
2023-10-12T18:28:38.744Z,1.10
2023-10-12T18:31:07.582Z,1.10
2023-10-12T18:33:36.291Z,1.13
2023-10-12T18:36:05.447Z,1.00
2023-10-12T18:38:35.976Z,1.20
2023-10-12T18:41:05.870Z,1.05
2023-10-12T18:43:34.337Z,1.20
2023-10-12T18:46:04.983Z,0.90
2023-10-12T18:48:33.256Z,1.10
2023-10-12T18:51:02.078Z,1.00
2023-10-12T18:53:30.723Z,1.10
2023-10-12T18:56:02.587Z,1.20
2023-10-12T18:58:30.702Z,1.40
2023-10-12T19:01:01.149Z,0.98
2023-10-12T19:03:30.883Z,0.95
2023-10-12T19:05:59.023Z,1.20
2023-10-12T19:08:27.522Z,1.15
2023-10-12T19:10:55.650Z,1.10
2023-10-12T19:13:24.740Z,1.00
2023-10-12T19:15:53.970Z,1.00
2023-10-12T19:18:31.370Z,1.05
2023-10-12T19:21:00.955Z,1.10
2023-10-12T19:23:28.998Z,1.10
2023-10-12T19:25:57.963Z,1.20
2023-10-12T19:28:26.577Z,1.25
2023-10-12T19:30:55.904Z,1.20
2023-10-12T19:33:24.139Z,0.95
2023-10-12T19:35:52.220Z,1.10
2023-10-12T19:38:22.611Z,1.00
2023-10-12T19:40:51.795Z,1.10
2023-10-12T19:43:20.040Z,1.23
2023-10-12T19:45:48.212Z,1.20
2023-10-12T19:48:17.134Z,1.00
2023-10-12T19:50:45.531Z,1.30
2023-10-12T19:53:13.625Z,1.30
2023-10-12T19:55:45.394Z,1.40
2023-10-12T19:58:14.071Z,1.55
2023-10-12T20:00:42.179Z,1.25
2023-10-12T20:03:23.442Z,1.50
2023-10-12T20:05:52.075Z,1.30
2023-10-12T20:08:20.634Z,1.25
2023-10-12T20:10:50.253Z,1.30
2023-10-12T20:13:20.859Z,1.23
2023-10-12T20:15:49.933Z,1.25
2023-10-12T20:18:20.897Z,1.30
2023-10-12T20:20:49.287Z,1.33
2023-10-12T20:23:17.512Z,1.20
2023-10-12T20:25:45.944Z,1.30
2023-10-12T20:28:15.852Z,1.25
2023-10-12T20:30:45.093Z,1.17
2023-10-12T20:33:13.405Z,1.30
2023-10-12T20:35:41.648Z,1.27
2023-10-12T20:38:12.690Z,1.20
2023-10-12T20:40:40.956Z,1.30
2023-10-12T20:43:10.451Z,1.30
2023-10-12T20:45:41.775Z,1.40
2023-10-12T20:48:10.856Z,1.50
2023-10-12T20:50:40.218Z,1.25
2023-10-12T20:53:10.428Z,1.55
2023-10-12T20:55:44.537Z,1.35
2023-10-12T20:58:16.117Z,1.33
2023-10-12T21:00:46.580Z,1.23
2023-10-12T21:03:22.279Z,1.42
2023-10-12T21:05:51.035Z,1.25
2023-10-12T21:08:22.608Z,1.30
2023-10-12T21:10:59.427Z,1.25
2023-10-12T21:13:28.172Z,1.35
2023-10-12T21:16:02.240Z,1.40
2023-10-12T21:18:36.365Z,1.25
2023-10-12T21:21:19.467Z,1.38
2023-10-12T21:23:51.664Z,1.33
2023-10-12T21:26:22.668Z,1.50
2023-10-12T21:28:55.719Z,1.42
2023-10-12T21:31:29.591Z,1.30
2023-10-12T21:34:00.425Z,1.50
2023-10-12T21:36:30.335Z,1.40
2023-10-12T21:38:58.689Z,1.30
2023-10-12T21:41:36.724Z,1.30
2023-10-12T21:44:05.901Z,1.10
2023-10-12T21:46:35.931Z,1.30
2023-10-12T21:49:04.586Z,1.50
2023-10-12T21:51:34.265Z,1.33
2023-10-12T21:54:05.508Z,1.48
2023-10-12T21:56:33.678Z,1.30
2023-10-12T21:59:01.834Z,1.55
2023-10-12T22:01:35.275Z,1.50
2023-10-12T22:04:05.987Z,1.20
2023-10-12T22:06:34.805Z,1.30
2023-10-12T22:09:05.669Z,1.40
2023-10-12T22:11:39.981Z,1.50
2023-10-12T22:16:51.218Z,1.30
2023-10-12T22:19:21.695Z,1.17
2023-10-12T22:21:50.413Z,1.45
2023-10-12T22:24:18.757Z,1.50
2023-10-12T22:26:47.877Z,1.40
2023-10-12T22:29:16.246Z,1.40
2023-10-12T22:31:45.640Z,1.42
2023-10-12T22:34:16.914Z,1.23
2023-10-12T22:36:48.086Z,1.27
2023-10-12T22:39:18.238Z,1.20
2023-10-12T22:41:50.248Z,1.40
2023-10-12T22:44:19.105Z,1.52
2023-10-12T22:46:47.240Z,1.30
2023-10-12T22:49:15.617Z,1.30
2023-10-12T22:51:43.791Z,1.45
2023-10-12T22:54:13.324Z,1.10
2023-10-12T22:56:43.067Z,1.25
2023-10-12T22:59:11.268Z,1.42
2023-10-12T23:01:40.272Z,1.50
2023-10-12T23:04:09.249Z,1.20
2023-10-12T23:06:37.511Z,1.40
2023-10-12T23:09:08.530Z,1.25
2023-10-12T23:11:38.680Z,1.45
2023-10-12T23:14:10.260Z,1.42
2023-10-12T23:16:51.624Z,1.40
2023-10-12T23:19:29.971Z,1.27
2023-10-12T23:22:01.778Z,1.40
2023-10-12T23:24:29.939Z,1.30
2023-10-12T23:27:00.201Z,1.30
2023-10-12T23:29:28.833Z,1.05
2023-10-12T23:31:57.031Z,1.23
2023-10-12T23:34:27.274Z,1.20
2023-10-12T23:36:59.894Z,1.30
2023-10-12T23:39:36.797Z,1.27
2023-10-12T23:42:08.895Z,1.10
2023-10-12T23:45:02.762Z,1.10
2023-10-12T23:47:43.015Z,1.20
2023-10-12T23:50:28.884Z,1.13
2023-10-12T23:52:57.836Z,1.20
2023-10-12T23:55:31.900Z,1.35
2023-10-12T23:58:08.212Z,1.25
